sensor_id;sensor_type;location;lat;lon;timestamp;P1;durP1;ratioP1;P2;durP2;ratioP2
2031;SDS011;27625;50.422;7.944;2022-11-28T00:02:37;14.43;;;11.50;;
2031;SDS011;27625;50.422;7.944;2022-11-28T00:05:04;14.43;;;11.17;;
2031;SDS011;27625;50.422;7.944;2022-11-28T00:07:31;14.47;;;12.30;;
2031;SDS011;27625;50.422;7.944;2022-11-28T00:09:58;14.10;;;11.67;;
2031;SDS011;27625;50.422;7.944;2022-11-28T00:12:26;14.23;;;12.10;;
2031;SDS011;27625;50.422;7.944;2022-11-28T00:14:52;16.70;;;12.80;;
2031;SDS011;27625;50.422;7.944;2022-11-28T00:17:19;15.70;;;11.53;;
2031;SDS011;27625;50.422;7.944;2022-11-28T00:19:48;13.30;;;11.30;;
2031;SDS011;27625;50.422;7.944;2022-11-28T00:22:17;14.83;;;11.27;;
2031;SDS011;27625;50.422;7.944;2022-11-28T00:24:45;15.90;;;11.37;;
2031;SDS011;27625;50.422;7.944;2022-11-28T00:27:12;15.60;;;11.07;;
2031;SDS011;27625;50.422;7.944;2022-11-28T00:29:38;14.43;;;11.07;;
2031;SDS011;27625;50.422;7.944;2022-11-28T00:32:09;13.70;;;11.40;;
2031;SDS011;27625;50.422;7.944;2022-11-28T00:34:35;13.50;;;10.53;;
2031;SDS011;27625;50.422;7.944;2022-11-28T00:37:04;13.17;;;10.80;;
2031;SDS011;27625;50.422;7.944;2022-11-28T00:39:30;15.20;;;10.60;;
2031;SDS011;27625;50.422;7.944;2022-11-28T00:42:03;14.97;;;11.87;;
2031;SDS011;27625;50.422;7.944;2022-11-28T00:44:31;15.60;;;11.90;;
2031;SDS011;27625;50.422;7.944;2022-11-28T00:46:57;16.23;;;12.10;;
2031;SDS011;27625;50.422;7.944;2022-11-28T00:49:27;16.63;;;12.20;;
2031;SDS011;27625;50.422;7.944;2022-11-28T00:51:54;18.23;;;12.37;;
2031;SDS011;27625;50.422;7.944;2022-11-28T00:54:22;16.27;;;11.20;;
2031;SDS011;27625;50.422;7.944;2022-11-28T00:56:49;14.10;;;11.87;;
2031;SDS011;27625;50.422;7.944;2022-11-28T00:59:17;15.97;;;12.03;;
2031;SDS011;27625;50.422;7.944;2022-11-28T01:01:44;15.80;;;11.87;;
2031;SDS011;27625;50.422;7.944;2022-11-28T01:04:11;14.87;;;11.50;;
2031;SDS011;27625;50.422;7.944;2022-11-28T01:06:42;15.47;;;12.70;;
2031;SDS011;27625;50.422;7.944;2022-11-28T01:09:13;15.60;;;11.93;;
2031;SDS011;27625;50.422;7.944;2022-11-28T01:11:49;13.87;;;11.20;;
2031;SDS011;27625;50.422;7.944;2022-11-28T01:14:17;15.80;;;11.67;;
2031;SDS011;27625;50.422;7.944;2022-11-28T01:16:49;17.03;;;12.17;;
2031;SDS011;27625;50.422;7.944;2022-11-28T01:19:15;16.10;;;11.93;;
2031;SDS011;27625;50.422;7.944;2022-11-28T01:21:42;15.57;;;12.20;;
2031;SDS011;27625;50.422;7.944;2022-11-28T01:24:09;14.83;;;10.70;;
2031;SDS011;27625;50.422;7.944;2022-11-28T01:26:37;12.70;;;11.30;;
2031;SDS011;27625;50.422;7.944;2022-11-28T01:29:08;18.37;;;12.17;;
2031;SDS011;27625;50.422;7.944;2022-11-28T01:31:36;15.13;;;10.57;;
2031;SDS011;27625;50.422;7.944;2022-11-28T01:34:08;13.27;;;10.97;;
2031;SDS011;27625;50.422;7.944;2022-11-28T01:36:36;15.23;;;10.33;;
2031;SDS011;27625;50.422;7.944;2022-11-28T01:39:04;15.60;;;11.20;;
2031;SDS011;27625;50.422;7.944;2022-11-28T01:41:31;14.77;;;11.53;;
2031;SDS011;27625;50.422;7.944;2022-11-28T01:43:59;16.37;;;12.60;;
2031;SDS011;27625;50.422;7.944;2022-11-28T01:46:32;13.13;;;11.03;;
2031;SDS011;27625;50.422;7.944;2022-11-28T01:49:00;14.07;;;10.67;;
2031;SDS011;27625;50.422;7.944;2022-11-28T01:51:29;15.27;;;11.97;;
2031;SDS011;27625;50.422;7.944;2022-11-28T01:53:56;17.73;;;13.07;;
2031;SDS011;27625;50.422;7.944;2022-11-28T01:56:24;17.27;;;11.57;;
2031;SDS011;27625;50.422;7.944;2022-11-28T01:58:54;13.40;;;11.00;;
2031;SDS011;27625;50.422;7.944;2022-11-28T02:01:23;16.27;;;12.57;;
2031;SDS011;27625;50.422;7.944;2022-11-28T02:03:52;16.03;;;12.10;;
2031;SDS011;27625;50.422;7.944;2022-11-28T02:06:22;14.73;;;12.00;;
2031;SDS011;27625;50.422;7.944;2022-11-28T02:08:50;15.80;;;12.33;;
2031;SDS011;27625;50.422;7.944;2022-11-28T02:14:11;21.10;;;12.03;;
2031;SDS011;27625;50.422;7.944;2022-11-28T02:16:45;15.40;;;12.00;;
2031;SDS011;27625;50.422;7.944;2022-11-28T02:22:12;14.63;;;11.60;;
2031;SDS011;27625;50.422;7.944;2022-11-28T02:24:55;15.70;;;11.57;;
2031;SDS011;27625;50.422;7.944;2022-11-28T02:30:56;15.87;;;12.17;;
2031;SDS011;27625;50.422;7.944;2022-11-28T02:33:34;15.90;;;12.70;;
2031;SDS011;27625;50.422;7.944;2022-11-28T02:36:11;18.80;;;12.57;;
2031;SDS011;27625;50.422;7.944;2022-11-28T02:38:47;15.77;;;11.80;;
2031;SDS011;27625;50.422;7.944;2022-11-28T02:41:27;16.57;;;12.63;;
2031;SDS011;27625;50.422;7.944;2022-11-28T02:43:58;16.73;;;12.10;;
2031;SDS011;27625;50.422;7.944;2022-11-28T02:46:36;15.27;;;11.67;;
2031;SDS011;27625;50.422;7.944;2022-11-28T02:49:09;16.20;;;12.80;;
2031;SDS011;27625;50.422;7.944;2022-11-28T02:51:40;15.43;;;12.57;;
2031;SDS011;27625;50.422;7.944;2022-11-28T02:54:10;14.97;;;12.00;;
2031;SDS011;27625;50.422;7.944;2022-11-28T02:56:43;16.60;;;12.40;;
2031;SDS011;27625;50.422;7.944;2022-11-28T02:59:30;17.00;;;12.03;;
2031;SDS011;27625;50.422;7.944;2022-11-28T03:01:58;18.47;;;12.10;;
2031;SDS011;27625;50.422;7.944;2022-11-28T03:04:30;16.30;;;12.30;;
2031;SDS011;27625;50.422;7.944;2022-11-28T03:07:04;15.80;;;12.37;;
2031;SDS011;27625;50.422;7.944;2022-11-28T03:09:42;16.00;;;12.73;;
2031;SDS011;27625;50.422;7.944;2022-11-28T03:12:19;16.70;;;12.50;;
2031;SDS011;27625;50.422;7.944;2022-11-28T03:14:53;16.03;;;11.97;;
2031;SDS011;27625;50.422;7.944;2022-11-28T03:17:24;17.60;;;13.10;;
2031;SDS011;27625;50.422;7.944;2022-11-28T03:19:58;18.20;;;12.57;;
2031;SDS011;27625;50.422;7.944;2022-11-28T03:22:29;16.33;;;13.00;;
2031;SDS011;27625;50.422;7.944;2022-11-28T03:25:02;17.33;;;12.53;;
2031;SDS011;27625;50.422;7.944;2022-11-28T03:27:36;15.87;;;12.87;;
2031;SDS011;27625;50.422;7.944;2022-11-28T03:30:07;16.97;;;13.27;;
2031;SDS011;27625;50.422;7.944;2022-11-28T03:32:49;17.67;;;12.40;;
2031;SDS011;27625;50.422;7.944;2022-11-28T03:35:19;19.87;;;13.50;;
2031;SDS011;27625;50.422;7.944;2022-11-28T03:37:48;17.77;;;12.97;;
2031;SDS011;27625;50.422;7.944;2022-11-28T03:40:24;16.07;;;11.90;;
2031;SDS011;27625;50.422;7.944;2022-11-28T03:42:53;16.87;;;12.53;;
2031;SDS011;27625;50.422;7.944;2022-11-28T03:45:27;16.83;;;12.93;;
2031;SDS011;27625;50.422;7.944;2022-11-28T03:47:56;20.00;;;12.70;;
2031;SDS011;27625;50.422;7.944;2022-11-28T03:50:28;17.97;;;12.97;;
2031;SDS011;27625;50.422;7.944;2022-11-28T03:52:59;15.03;;;12.00;;
2031;SDS011;27625;50.422;7.944;2022-11-28T03:55:29;19.47;;;13.23;;
2031;SDS011;27625;50.422;7.944;2022-11-28T03:58:04;18.03;;;12.33;;
2031;SDS011;27625;50.422;7.944;2022-11-28T04:00:35;14.33;;;11.30;;
2031;SDS011;27625;50.422;7.944;2022-11-28T04:03:07;15.27;;;11.83;;
2031;SDS011;27625;50.422;7.944;2022-11-28T04:05:43;19.27;;;12.50;;
2031;SDS011;27625;50.422;7.944;2022-11-28T04:08:13;19.03;;;12.20;;
2031;SDS011;27625;50.422;7.944;2022-11-28T04:10:44;18.90;;;12.80;;
2031;SDS011;27625;50.422;7.944;2022-11-28T04:13:17;20.57;;;13.00;;
2031;SDS011;27625;50.422;7.944;2022-11-28T04:15:49;15.83;;;12.60;;
2031;SDS011;27625;50.422;7.944;2022-11-28T04:18:20;15.70;;;12.50;;
2031;SDS011;27625;50.422;7.944;2022-11-28T04:20:51;18.60;;;13.10;;
2031;SDS011;27625;50.422;7.944;2022-11-28T04:23:20;15.67;;;12.43;;
2031;SDS011;27625;50.422;7.944;2022-11-28T04:25:50;18.17;;;12.30;;
2031;SDS011;27625;50.422;7.944;2022-11-28T04:28:19;17.37;;;12.90;;
2031;SDS011;27625;50.422;7.944;2022-11-28T04:30:47;16.20;;;11.87;;
2031;SDS011;27625;50.422;7.944;2022-11-28T04:33:16;15.57;;;11.80;;
2031;SDS011;27625;50.422;7.944;2022-11-28T04:35:45;17.50;;;11.33;;
2031;SDS011;27625;50.422;7.944;2022-11-28T04:38:17;15.93;;;12.80;;
2031;SDS011;27625;50.422;7.944;2022-11-28T04:40:46;16.37;;;12.20;;
2031;SDS011;27625;50.422;7.944;2022-11-28T04:43:15;16.80;;;12.00;;
2031;SDS011;27625;50.422;7.944;2022-11-28T04:45:45;14.70;;;10.70;;
2031;SDS011;27625;50.422;7.944;2022-11-28T04:48:16;15.17;;;12.10;;
2031;SDS011;27625;50.422;7.944;2022-11-28T04:53:38;15.23;;;11.57;;
2031;SDS011;27625;50.422;7.944;2022-11-28T04:56:10;16.93;;;12.80;;
2031;SDS011;27625;50.422;7.944;2022-11-28T04:58:41;17.07;;;11.67;;
2031;SDS011;27625;50.422;7.944;2022-11-28T05:01:10;20.70;;;11.87;;
2031;SDS011;27625;50.422;7.944;2022-11-28T05:03:46;16.10;;;11.10;;
2031;SDS011;27625;50.422;7.944;2022-11-28T05:06:20;16.03;;;12.07;;
2031;SDS011;27625;50.422;7.944;2022-11-28T05:08:56;15.90;;;11.53;;
2031;SDS011;27625;50.422;7.944;2022-11-28T05:11:24;16.40;;;12.23;;
2031;SDS011;27625;50.422;7.944;2022-11-28T05:14:01;18.63;;;12.03;;
2031;SDS011;27625;50.422;7.944;2022-11-28T05:16:28;17.40;;;12.83;;
2031;SDS011;27625;50.422;7.944;2022-11-28T05:18:55;14.10;;;11.43;;
2031;SDS011;27625;50.422;7.944;2022-11-28T05:21:23;16.43;;;12.43;;
2031;SDS011;27625;50.422;7.944;2022-11-28T05:23:51;14.77;;;12.20;;
2031;SDS011;27625;50.422;7.944;2022-11-28T05:26:27;15.60;;;11.90;;
2031;SDS011;27625;50.422;7.944;2022-11-28T05:28:57;14.43;;;11.67;;
2031;SDS011;27625;50.422;7.944;2022-11-28T05:31:24;19.20;;;12.13;;
2031;SDS011;27625;50.422;7.944;2022-11-28T05:33:53;16.20;;;12.40;;
2031;SDS011;27625;50.422;7.944;2022-11-28T05:38:57;14.50;;;12.30;;
2031;SDS011;27625;50.422;7.944;2022-11-28T05:41:24;15.20;;;11.57;;
2031;SDS011;27625;50.422;7.944;2022-11-28T05:43:54;17.30;;;12.03;;
2031;SDS011;27625;50.422;7.944;2022-11-28T05:46:23;17.73;;;12.07;;
2031;SDS011;27625;50.422;7.944;2022-11-28T05:48:51;14.77;;;11.57;;
2031;SDS011;27625;50.422;7.944;2022-11-28T05:53:49;16.20;;;12.30;;
2031;SDS011;27625;50.422;7.944;2022-11-28T05:56:17;18.73;;;13.47;;
2031;SDS011;27625;50.422;7.944;2022-11-28T05:58:50;18.30;;;12.30;;
2031;SDS011;27625;50.422;7.944;2022-11-28T06:01:18;19.10;;;14.00;;
2031;SDS011;27625;50.422;7.944;2022-11-28T06:03:47;18.10;;;13.13;;
2031;SDS011;27625;50.422;7.944;2022-11-28T06:06:17;21.70;;;13.83;;
2031;SDS011;27625;50.422;7.944;2022-11-28T06:08:45;19.47;;;14.00;;
2031;SDS011;27625;50.422;7.944;2022-11-28T06:11:21;19.70;;;14.53;;
2031;SDS011;27625;50.422;7.944;2022-11-28T06:13:54;17.43;;;13.27;;
2031;SDS011;27625;50.422;7.944;2022-11-28T06:16:23;16.70;;;12.10;;
2031;SDS011;27625;50.422;7.944;2022-11-28T06:19:02;18.37;;;12.73;;
2031;SDS011;27625;50.422;7.944;2022-11-28T06:24:01;17.87;;;12.70;;
2031;SDS011;27625;50.422;7.944;2022-11-28T06:26:29;18.27;;;12.37;;
2031;SDS011;27625;50.422;7.944;2022-11-28T06:28:59;18.20;;;12.73;;
2031;SDS011;27625;50.422;7.944;2022-11-28T06:31:29;16.20;;;12.70;;
2031;SDS011;27625;50.422;7.944;2022-11-28T06:33:57;17.00;;;12.37;;
2031;SDS011;27625;50.422;7.944;2022-11-28T06:36:28;16.70;;;12.70;;
2031;SDS011;27625;50.422;7.944;2022-11-28T06:41:25;16.70;;;12.63;;
2031;SDS011;27625;50.422;7.944;2022-11-28T06:43:53;18.07;;;12.20;;
2031;SDS011;27625;50.422;7.944;2022-11-28T06:46:23;18.90;;;15.00;;
2031;SDS011;27625;50.422;7.944;2022-11-28T06:48:51;21.60;;;15.70;;
2031;SDS011;27625;50.422;7.944;2022-11-28T06:51:18;22.37;;;15.90;;
2031;SDS011;27625;50.422;7.944;2022-11-28T06:53:47;19.87;;;15.97;;
2031;SDS011;27625;50.422;7.944;2022-11-28T06:56:17;18.30;;;14.73;;
2031;SDS011;27625;50.422;7.944;2022-11-28T07:01:19;20.10;;;15.63;;
2031;SDS011;27625;50.422;7.944;2022-11-28T07:03:57;20.20;;;15.30;;
2031;SDS011;27625;50.422;7.944;2022-11-28T07:06:29;17.07;;;13.87;;
2031;SDS011;27625;50.422;7.944;2022-11-28T07:08:56;18.33;;;14.20;;
2031;SDS011;27625;50.422;7.944;2022-11-28T07:11:26;18.23;;;13.60;;
2031;SDS011;27625;50.422;7.944;2022-11-28T07:13:59;18.47;;;13.57;;
2031;SDS011;27625;50.422;7.944;2022-11-28T07:16:27;17.57;;;13.47;;
2031;SDS011;27625;50.422;7.944;2022-11-28T07:18:56;17.13;;;12.83;;
2031;SDS011;27625;50.422;7.944;2022-11-28T07:21:24;20.77;;;17.30;;
2031;SDS011;27625;50.422;7.944;2022-11-28T07:23:53;19.40;;;15.70;;
2031;SDS011;27625;50.422;7.944;2022-11-28T07:26:20;19.43;;;15.10;;
2031;SDS011;27625;50.422;7.944;2022-11-28T07:28:47;19.47;;;14.30;;
2031;SDS011;27625;50.422;7.944;2022-11-28T07:31:16;16.63;;;12.43;;
2031;SDS011;27625;50.422;7.944;2022-11-28T07:33:46;21.00;;;14.63;;
2031;SDS011;27625;50.422;7.944;2022-11-28T07:36:17;20.27;;;15.03;;
2031;SDS011;27625;50.422;7.944;2022-11-28T07:38:45;19.30;;;12.87;;
2031;SDS011;27625;50.422;7.944;2022-11-28T07:41:12;16.50;;;12.90;;
2031;SDS011;27625;50.422;7.944;2022-11-28T07:43:40;16.60;;;13.30;;
2031;SDS011;27625;50.422;7.944;2022-11-28T07:46:15;19.93;;;15.37;;
2031;SDS011;27625;50.422;7.944;2022-11-28T07:48:43;15.60;;;12.27;;
2031;SDS011;27625;50.422;7.944;2022-11-28T07:51:11;17.70;;;11.67;;
2031;SDS011;27625;50.422;7.944;2022-11-28T07:53:41;18.23;;;12.70;;
2031;SDS011;27625;50.422;7.944;2022-11-28T07:56:09;17.17;;;11.83;;
2031;SDS011;27625;50.422;7.944;2022-11-28T07:58:38;16.10;;;12.33;;
2031;SDS011;27625;50.422;7.944;2022-11-28T08:01:07;17.83;;;13.30;;
2031;SDS011;27625;50.422;7.944;2022-11-28T08:03:34;17.03;;;12.87;;
2031;SDS011;27625;50.422;7.944;2022-11-28T08:06:02;17.83;;;12.67;;
2031;SDS011;27625;50.422;7.944;2022-11-28T08:08:29;15.70;;;11.97;;
2031;SDS011;27625;50.422;7.944;2022-11-28T08:10:57;18.23;;;13.17;;
2031;SDS011;27625;50.422;7.944;2022-11-28T08:13:26;14.37;;;11.40;;
2031;SDS011;27625;50.422;7.944;2022-11-28T08:15:54;14.90;;;11.60;;
2031;SDS011;27625;50.422;7.944;2022-11-28T08:18:22;17.90;;;12.50;;
2031;SDS011;27625;50.422;7.944;2022-11-28T08:20:49;16.73;;;12.60;;
2031;SDS011;27625;50.422;7.944;2022-11-28T08:23:17;19.20;;;13.33;;
2031;SDS011;27625;50.422;7.944;2022-11-28T08:25:44;16.37;;;12.73;;
2031;SDS011;27625;50.422;7.944;2022-11-28T08:28:12;19.00;;;12.80;;
2031;SDS011;27625;50.422;7.944;2022-11-28T08:30:41;21.03;;;12.40;;
2031;SDS011;27625;50.422;7.944;2022-11-28T08:33:07;17.80;;;13.60;;
2031;SDS011;27625;50.422;7.944;2022-11-28T08:35:37;16.70;;;12.70;;
2031;SDS011;27625;50.422;7.944;2022-11-28T08:38:04;18.40;;;13.50;;
2031;SDS011;27625;50.422;7.944;2022-11-28T08:40:32;16.90;;;12.83;;
2031;SDS011;27625;50.422;7.944;2022-11-28T08:42:59;22.37;;;14.50;;
2031;SDS011;27625;50.422;7.944;2022-11-28T08:45:26;17.63;;;13.57;;
2031;SDS011;27625;50.422;7.944;2022-11-28T08:47:57;18.07;;;13.97;;
2031;SDS011;27625;50.422;7.944;2022-11-28T08:50:28;17.50;;;13.33;;
2031;SDS011;27625;50.422;7.944;2022-11-28T08:52:54;18.10;;;14.00;;
2031;SDS011;27625;50.422;7.944;2022-11-28T08:55:25;18.23;;;14.00;;
2031;SDS011;27625;50.422;7.944;2022-11-28T08:57:53;16.50;;;13.13;;
2031;SDS011;27625;50.422;7.944;2022-11-28T09:00:22;18.77;;;13.83;;
2031;SDS011;27625;50.422;7.944;2022-11-28T09:02:50;20.40;;;12.93;;
2031;SDS011;27625;50.422;7.944;2022-11-28T09:05:17;18.50;;;14.10;;
2031;SDS011;27625;50.422;7.944;2022-11-28T09:07:45;20.60;;;14.07;;
2031;SDS011;27625;50.422;7.944;2022-11-28T09:10:12;18.50;;;13.90;;
2031;SDS011;27625;50.422;7.944;2022-11-28T09:12:39;19.00;;;14.10;;
2031;SDS011;27625;50.422;7.944;2022-11-28T09:15:12;20.53;;;13.90;;
2031;SDS011;27625;50.422;7.944;2022-11-28T09:17:42;17.93;;;12.90;;
2031;SDS011;27625;50.422;7.944;2022-11-28T09:20:12;23.50;;;14.87;;
2031;SDS011;27625;50.422;7.944;2022-11-28T09:22:42;16.80;;;12.80;;
2031;SDS011;27625;50.422;7.944;2022-11-28T09:25:12;20.67;;;15.13;;
2031;SDS011;27625;50.422;7.944;2022-11-28T09:27:42;20.77;;;15.67;;
2031;SDS011;27625;50.422;7.944;2022-11-28T09:30:10;20.10;;;13.50;;
2031;SDS011;27625;50.422;7.944;2022-11-28T09:32:44;20.43;;;14.33;;
2031;SDS011;27625;50.422;7.944;2022-11-28T09:35:21;17.67;;;13.27;;
2031;SDS011;27625;50.422;7.944;2022-11-28T09:37:48;19.63;;;14.10;;
2031;SDS011;27625;50.422;7.944;2022-11-28T09:40:15;21.50;;;14.40;;
2031;SDS011;27625;50.422;7.944;2022-11-28T09:42:42;18.70;;;14.33;;
2031;SDS011;27625;50.422;7.944;2022-11-28T09:45:10;22.07;;;14.63;;
2031;SDS011;27625;50.422;7.944;2022-11-28T09:47:39;20.00;;;15.00;;
2031;SDS011;27625;50.422;7.944;2022-11-28T09:50:11;18.90;;;14.80;;
2031;SDS011;27625;50.422;7.944;2022-11-28T09:52:44;21.20;;;14.70;;
2031;SDS011;27625;50.422;7.944;2022-11-28T09:55:22;20.90;;;14.50;;
2031;SDS011;27625;50.422;7.944;2022-11-28T09:57:54;18.57;;;14.50;;
2031;SDS011;27625;50.422;7.944;2022-11-28T10:00:29;19.50;;;14.00;;
2031;SDS011;27625;50.422;7.944;2022-11-28T10:05:52;21.70;;;15.63;;
2031;SDS011;27625;50.422;7.944;2022-11-28T10:08:27;18.23;;;14.03;;
2031;SDS011;27625;50.422;7.944;2022-11-28T10:11:00;19.50;;;15.20;;
2031;SDS011;27625;50.422;7.944;2022-11-28T10:13:35;19.53;;;14.50;;
2031;SDS011;27625;50.422;7.944;2022-11-28T10:16:08;18.53;;;15.40;;
2031;SDS011;27625;50.422;7.944;2022-11-28T10:18:44;19.80;;;15.20;;
2031;SDS011;27625;50.422;7.944;2022-11-28T10:21:17;19.10;;;15.00;;
2031;SDS011;27625;50.422;7.944;2022-11-28T10:23:50;18.30;;;15.10;;
2031;SDS011;27625;50.422;7.944;2022-11-28T10:26:23;22.30;;;15.77;;
2031;SDS011;27625;50.422;7.944;2022-11-28T10:28:54;19.37;;;15.17;;
2031;SDS011;27625;50.422;7.944;2022-11-28T10:31:26;19.30;;;15.00;;
2031;SDS011;27625;50.422;7.944;2022-11-28T10:33:56;22.77;;;16.70;;
2031;SDS011;27625;50.422;7.944;2022-11-28T10:36:29;20.27;;;14.80;;
2031;SDS011;27625;50.422;7.944;2022-11-28T10:39:01;16.87;;;14.60;;
2031;SDS011;27625;50.422;7.944;2022-11-28T10:41:35;20.60;;;15.83;;
2031;SDS011;27625;50.422;7.944;2022-11-28T10:44:04;20.43;;;14.83;;
2031;SDS011;27625;50.422;7.944;2022-11-28T10:46:46;22.33;;;15.30;;
2031;SDS011;27625;50.422;7.944;2022-11-28T10:49:30;21.33;;;15.60;;
2031;SDS011;27625;50.422;7.944;2022-11-28T10:52:06;20.43;;;15.90;;
2031;SDS011;27625;50.422;7.944;2022-11-28T10:54:53;20.73;;;15.07;;
2031;SDS011;27625;50.422;7.944;2022-11-28T10:57:25;19.87;;;15.33;;
2031;SDS011;27625;50.422;7.944;2022-11-28T10:59:58;19.93;;;15.30;;
2031;SDS011;27625;50.422;7.944;2022-11-28T11:02:32;21.40;;;16.43;;
2031;SDS011;27625;50.422;7.944;2022-11-28T11:05:03;21.10;;;15.70;;
2031;SDS011;27625;50.422;7.944;2022-11-28T11:07:36;22.07;;;15.43;;
2031;SDS011;27625;50.422;7.944;2022-11-28T11:10:13;20.97;;;15.80;;
2031;SDS011;27625;50.422;7.944;2022-11-28T11:12:41;24.87;;;16.10;;
2031;SDS011;27625;50.422;7.944;2022-11-28T11:15:17;21.20;;;14.93;;
2031;SDS011;27625;50.422;7.944;2022-11-28T11:17:46;21.63;;;16.03;;
2031;SDS011;27625;50.422;7.944;2022-11-28T11:23:14;20.13;;;15.80;;
2031;SDS011;27625;50.422;7.944;2022-11-28T11:25:48;22.03;;;17.03;;
2031;SDS011;27625;50.422;7.944;2022-11-28T11:28:31;21.17;;;16.07;;
2031;SDS011;27625;50.422;7.944;2022-11-28T11:31:17;20.50;;;15.63;;
2031;SDS011;27625;50.422;7.944;2022-11-28T11:33:49;21.87;;;16.77;;
2031;SDS011;27625;50.422;7.944;2022-11-28T11:36:24;20.80;;;17.20;;
2031;SDS011;27625;50.422;7.944;2022-11-28T11:41:48;23.67;;;18.27;;
2031;SDS011;27625;50.422;7.944;2022-11-28T11:44:28;27.47;;;18.60;;
2031;SDS011;27625;50.422;7.944;2022-11-28T11:46:58;27.23;;;18.57;;
2031;SDS011;27625;50.422;7.944;2022-11-28T11:49:29;23.63;;;18.17;;
2031;SDS011;27625;50.422;7.944;2022-11-28T11:51:57;25.57;;;18.67;;
2031;SDS011;27625;50.422;7.944;2022-11-28T11:54:33;23.37;;;17.03;;
2031;SDS011;27625;50.422;7.944;2022-11-28T11:57:07;23.60;;;17.87;;
2031;SDS011;27625;50.422;7.944;2022-11-28T11:59:38;24.23;;;19.27;;
2031;SDS011;27625;50.422;7.944;2022-11-28T12:02:07;22.87;;;18.10;;
2031;SDS011;27625;50.422;7.944;2022-11-28T12:04:47;26.07;;;18.60;;
2031;SDS011;27625;50.422;7.944;2022-11-28T12:07:19;32.70;;;18.50;;
2031;SDS011;27625;50.422;7.944;2022-11-28T12:09:57;26.93;;;19.20;;
2031;SDS011;27625;50.422;7.944;2022-11-28T12:12:27;27.47;;;18.80;;
2031;SDS011;27625;50.422;7.944;2022-11-28T12:14:56;24.13;;;18.13;;
2031;SDS011;27625;50.422;7.944;2022-11-28T12:17:27;25.07;;;19.57;;
2031;SDS011;27625;50.422;7.944;2022-11-28T12:20:07;25.97;;;19.87;;
2031;SDS011;27625;50.422;7.944;2022-11-28T12:22:48;27.83;;;20.73;;
2031;SDS011;27625;50.422;7.944;2022-11-28T12:25:22;27.23;;;19.40;;
2031;SDS011;27625;50.422;7.944;2022-11-28T12:27:58;25.37;;;19.90;;
2031;SDS011;27625;50.422;7.944;2022-11-28T12:30:30;26.50;;;18.47;;
2031;SDS011;27625;50.422;7.944;2022-11-28T12:33:14;25.10;;;19.27;;
2031;SDS011;27625;50.422;7.944;2022-11-28T12:35:51;24.10;;;18.40;;
2031;SDS011;27625;50.422;7.944;2022-11-28T12:38:30;24.37;;;19.10;;
2031;SDS011;27625;50.422;7.944;2022-11-28T12:41:09;27.67;;;19.47;;
2031;SDS011;27625;50.422;7.944;2022-11-28T12:43:50;25.07;;;19.30;;
2031;SDS011;27625;50.422;7.944;2022-11-28T12:46:29;26.70;;;19.37;;
2031;SDS011;27625;50.422;7.944;2022-11-28T12:49:11;23.63;;;18.33;;
2031;SDS011;27625;50.422;7.944;2022-11-28T12:51:45;25.33;;;19.60;;
2031;SDS011;27625;50.422;7.944;2022-11-28T12:54:24;25.60;;;19.27;;
2031;SDS011;27625;50.422;7.944;2022-11-28T12:57:00;27.33;;;19.93;;
2031;SDS011;27625;50.422;7.944;2022-11-28T12:59:36;22.20;;;18.07;;
2031;SDS011;27625;50.422;7.944;2022-11-28T13:02:17;28.33;;;18.90;;
2031;SDS011;27625;50.422;7.944;2022-11-28T13:05:02;23.23;;;19.00;;
2031;SDS011;27625;50.422;7.944;2022-11-28T13:08:00;23.67;;;18.20;;
2031;SDS011;27625;50.422;7.944;2022-11-28T13:10:54;28.77;;;20.20;;
2031;SDS011;27625;50.422;7.944;2022-11-28T13:13:37;27.50;;;19.70;;
2031;SDS011;27625;50.422;7.944;2022-11-28T13:18:47;28.10;;;18.87;;
2031;SDS011;27625;50.422;7.944;2022-11-28T13:23:50;26.77;;;20.10;;
2031;SDS011;27625;50.422;7.944;2022-11-28T13:26:26;26.10;;;19.30;;
2031;SDS011;27625;50.422;7.944;2022-11-28T13:29:01;29.50;;;20.23;;
2031;SDS011;27625;50.422;7.944;2022-11-28T13:31:41;27.90;;;22.27;;
2031;SDS011;27625;50.422;7.944;2022-11-28T13:34:15;28.10;;;19.87;;
2031;SDS011;27625;50.422;7.944;2022-11-28T13:36:46;30.73;;;21.67;;
2031;SDS011;27625;50.422;7.944;2022-11-28T13:39:23;29.33;;;22.17;;
2031;SDS011;27625;50.422;7.944;2022-11-28T13:41:58;31.17;;;20.97;;
2031;SDS011;27625;50.422;7.944;2022-11-28T13:44:27;26.97;;;21.03;;
2031;SDS011;27625;50.422;7.944;2022-11-28T13:47:12;26.13;;;19.33;;
2031;SDS011;27625;50.422;7.944;2022-11-28T13:49:41;28.70;;;19.20;;
2031;SDS011;27625;50.422;7.944;2022-11-28T13:54:58;32.50;;;20.47;;
2031;SDS011;27625;50.422;7.944;2022-11-28T13:57:26;31.00;;;20.83;;
2031;SDS011;27625;50.422;7.944;2022-11-28T14:00:06;29.00;;;21.20;;
2031;SDS011;27625;50.422;7.944;2022-11-28T14:02:48;25.53;;;20.00;;
2031;SDS011;27625;50.422;7.944;2022-11-28T14:05:22;29.83;;;21.20;;
2031;SDS011;27625;50.422;7.944;2022-11-28T14:07:54;27.43;;;21.07;;
2031;SDS011;27625;50.422;7.944;2022-11-28T14:10:31;33.10;;;21.37;;
2031;SDS011;27625;50.422;7.944;2022-11-28T14:15:54;26.33;;;20.80;;
2031;SDS011;27625;50.422;7.944;2022-11-28T14:18:32;27.50;;;21.43;;
2031;SDS011;27625;50.422;7.944;2022-11-28T14:21:08;26.83;;;20.53;;
2031;SDS011;27625;50.422;7.944;2022-11-28T14:23:42;30.50;;;22.53;;
2031;SDS011;27625;50.422;7.944;2022-11-28T14:26:13;31.70;;;22.37;;
2031;SDS011;27625;50.422;7.944;2022-11-28T14:28:48;31.57;;;21.90;;
2031;SDS011;27625;50.422;7.944;2022-11-28T14:31:26;32.13;;;22.37;;
2031;SDS011;27625;50.422;7.944;2022-11-28T14:33:59;30.93;;;21.60;;
2031;SDS011;27625;50.422;7.944;2022-11-28T14:36:28;29.00;;;21.10;;
2031;SDS011;27625;50.422;7.944;2022-11-28T14:39:07;29.07;;;21.57;;
2031;SDS011;27625;50.422;7.944;2022-11-28T14:44:46;31.37;;;22.33;;
2031;SDS011;27625;50.422;7.944;2022-11-28T14:47:26;30.47;;;22.30;;
2031;SDS011;27625;50.422;7.944;2022-11-28T14:56:21;30.00;;;21.13;;
2031;SDS011;27625;50.422;7.944;2022-11-28T14:58:57;25.67;;;20.50;;
2031;SDS011;27625;50.422;7.944;2022-11-28T15:01:29;34.70;;;22.90;;
2031;SDS011;27625;50.422;7.944;2022-11-28T15:04:13;30.90;;;22.73;;
2031;SDS011;27625;50.422;7.944;2022-11-28T15:06:50;31.53;;;23.17;;
2031;SDS011;27625;50.422;7.944;2022-11-28T15:09:30;31.07;;;23.80;;
2031;SDS011;27625;50.422;7.944;2022-11-28T15:12:06;35.57;;;23.90;;
2031;SDS011;27625;50.422;7.944;2022-11-28T15:14:38;35.10;;;25.50;;
2031;SDS011;27625;50.422;7.944;2022-11-28T15:17:09;36.13;;;25.17;;
2031;SDS011;27625;50.422;7.944;2022-11-28T15:19:38;38.60;;;26.20;;
2031;SDS011;27625;50.422;7.944;2022-11-28T15:24:55;36.87;;;25.97;;
2031;SDS011;27625;50.422;7.944;2022-11-28T15:27:24;40.53;;;28.13;;
2031;SDS011;27625;50.422;7.944;2022-11-28T15:29:51;39.13;;;27.37;;
2031;SDS011;27625;50.422;7.944;2022-11-28T15:32:19;40.23;;;26.23;;
2031;SDS011;27625;50.422;7.944;2022-11-28T15:34:57;42.13;;;27.53;;
2031;SDS011;27625;50.422;7.944;2022-11-28T15:39:57;38.97;;;26.87;;
2031;SDS011;27625;50.422;7.944;2022-11-28T15:42:27;41.33;;;27.10;;
2031;SDS011;27625;50.422;7.944;2022-11-28T15:44:56;40.60;;;25.60;;
2031;SDS011;27625;50.422;7.944;2022-11-28T15:47:25;34.80;;;24.77;;
2031;SDS011;27625;50.422;7.944;2022-11-28T15:50:09;35.53;;;25.63;;
2031;SDS011;27625;50.422;7.944;2022-11-28T15:52:48;35.43;;;25.23;;
2031;SDS011;27625;50.422;7.944;2022-11-28T15:55:18;37.33;;;26.13;;
2031;SDS011;27625;50.422;7.944;2022-11-28T15:57:48;40.00;;;26.30;;
2031;SDS011;27625;50.422;7.944;2022-11-28T16:00:16;36.13;;;26.27;;